Time;durP1;ratioP1;P1;durP2;ratioP2;P2;SDS_P1;SDS_P2;PMS_P1;PMS_P2;Temp;Humidity;BMP_temperature;BMP_pressure;BME280_temperature;BME280_humidity;BME280_pressure;Samples;Min_cycle;Max_cycle;Signal;HPM_P1;HPM_P2
2022/07/16 00:02:45;;;;;;;;;;;17.10;99.90;;;;;;5070881;28;20048;-51
2022/07/16 00:05:11;;;;;;;4.25;1.65;;;17.00;99.90;;;;;;5053140;28;19917;-52
2022/07/16 00:07:36;;;;;;;4.65;1.80;;;17.00;99.90;;;;;;5070126;28;20056;-53
2022/07/16 00:10:03;;;;;;;6.20;1.70;;;17.00;99.90;;;;;;5071099;28;20040;-51
2022/07/16 00:12:29;;;;;;;3.45;1.50;;;16.90;99.90;;;;;;5070985;28;20112;-52
2022/07/16 00:14:55;;;;;;;2.72;1.35;;;16.90;99.90;;;;;;5070063;28;20116;-52
2022/07/16 00:17:21;;;;;;;4.45;1.60;;;16.90;99.90;;;;;;5070617;28;20040;-54
2022/07/16 00:19:46;;;;;;;5.00;1.60;;;16.80;99.90;;;;;;5070559;28;20105;-53
2022/07/16 00:22:12;;;;;;;3.60;1.58;;;16.70;99.90;;;;;;5070940;28;20036;-53
2022/07/16 00:24:39;;;;;;;3.90;2.05;;;16.80;99.90;;;;;;5052450;28;20028;-52
2022/07/16 00:27:05;;;;;;;3.72;1.60;;;16.70;99.90;;;;;;5070635;28;20455;-51
2022/07/16 00:29:30;;;;;;;3.42;1.70;;;16.70;99.90;;;;;;5071078;28;20064;-52
2022/07/16 00:31:56;;;;;;;3.38;1.70;;;16.70;99.90;;;;;;5070711;28;20491;-51
2022/07/16 00:34:22;;;;;;;3.83;1.70;;;16.70;99.90;;;;;;5070605;28;20360;-53
2022/07/16 00:36:48;;;;;;;6.07;1.90;;;16.70;99.90;;;;;;5070217;28;20036;-54
2022/07/16 00:39:15;;;;;;;3.95;1.88;;;16.70;99.90;;;;;;5070047;28;20484;-53
2022/07/16 00:41:42;;;;;;;3.90;1.95;;;16.60;99.90;;;;;;5070306;28;20451;-52
2022/07/16 00:44:11;;;;;;;5.55;2.10;;;16.70;99.90;;;;;;5070731;28;20032;-51
2022/07/16 00:46:38;;;;;;;3.88;1.77;;;16.60;99.90;;;;;;5070661;28;20032;-52
2022/07/16 00:49:04;;;;;;;4.63;1.98;;;16.60;99.90;;;;;;5070227;28;20048;-51
2022/07/16 00:51:30;;;;;;;3.88;2.00;;;16.50;99.90;;;;;;5052222;28;20032;-51
2022/07/16 00:53:57;;;;;;;5.63;2.13;;;16.50;99.90;;;;;;5070449;28;20025;-52
2022/07/16 00:56:23;;;;;;;3.58;1.90;;;16.50;99.90;;;;;;5070270;28;20036;-54
2022/07/16 00:58:50;;;;;;;5.15;1.90;;;16.70;99.90;;;;;;5069414;28;20099;-50
2022/07/16 01:01:16;;;;;;;5.22;2.03;;;16.60;99.90;;;;;;5070207;28;20047;-51
2022/07/16 01:03:43;;;;;;;5.63;2.10;;;16.60;99.90;;;;;;5070627;28;20052;-53
2022/07/16 01:06:10;;;;;;;4.78;2.50;;;16.70;99.90;;;;;;5051858;28;20048;-55
2022/07/16 01:08:38;;;;;;;5.63;2.35;;;16.60;99.90;;;;;;5070225;28;20041;-53
2022/07/16 01:11:07;;;;;;;4.78;2.22;;;16.70;99.90;;;;;;5070295;28;20032;-52
2022/07/16 01:13:35;;;;;;;5.70;1.92;;;16.70;99.90;;;;;;5070305;28;20119;-53
2022/07/16 01:16:01;;;;;;;4.80;2.15;;;16.60;99.90;;;;;;5070694;28;20387;-54
2022/07/16 01:18:27;;;;;;;5.13;2.20;;;16.70;99.90;;;;;;5068715;28;20041;-54
2022/07/16 01:20:52;;;;;;;5.07;1.80;;;16.70;99.90;;;;;;5070323;28;20035;-53
2022/07/16 01:23:20;;;;;;;3.88;1.50;;;16.80;99.90;;;;;;5070570;28;20136;-52
2022/07/16 01:25:46;;;;;;;2.88;1.35;;;17.00;99.90;;;;;;5070125;28;20048;-53
2022/07/16 01:28:12;;;;;;;3.13;1.42;;;17.10;99.90;;;;;;5069386;28;20037;-53
2022/07/16 01:30:37;;;;;;;4.15;1.38;;;17.20;99.90;;;;;;5070224;28;20098;-52
2022/07/16 01:33:25;;;;;;;5.40;1.55;;;17.30;99.90;;;;;;5070174;28;20033;-54
2022/07/16 01:35:55;;;;;;;3.85;1.50;;;17.50;99.90;;;;;;5069605;28;20033;-53
2022/07/16 01:38:21;;;;;;;4.47;1.23;;;17.50;99.90;;;;;;5069856;28;20040;-53
2022/07/16 01:40:46;;;;;;;4.95;1.60;;;17.50;99.90;;;;;;5070179;28;20411;-51
2022/07/16 01:43:20;;;;;;;8.13;2.22;;;17.60;99.90;;;;;;5068534;28;20032;-50
2022/07/16 01:45:46;;;;;;;7.35;2.05;;;17.30;99.90;;;;;;5069230;28;20036;-49
2022/07/16 01:48:13;;;;;;;5.25;2.50;;;17.00;99.90;;;;;;5071250;28;20037;-53
2022/07/16 01:50:40;;;;;;;5.13;2.35;;;17.00;99.90;;;;;;5072049;28;20059;-51
2022/07/16 01:53:07;;;;;;;6.47;2.30;;;16.90;99.90;;;;;;5073557;28;20040;-53
2022/07/16 01:55:36;;;;;;;7.65;3.47;;;16.90;99.90;;;;;;5073357;28;20097;-53
2022/07/16 01:58:05;;;;;;;6.38;2.80;;;16.90;99.90;;;;;;5073094;28;20040;-52
2022/07/16 02:00:32;;;;;;;8.73;2.95;;;16.80;99.90;;;;;;5055040;28;20082;-54
2022/07/16 02:02:58;;;;;;;6.90;3.22;;;16.70;99.90;;;;;;5072992;28;20127;-50
2022/07/16 02:05:24;;;;;;;5.38;2.90;;;16.70;99.90;;;;;;5073410;28;20036;-53
2022/07/16 02:07:50;;;;;;;8.90;2.80;;;16.70;99.90;;;;;;5072781;28;20044;-50
2022/07/16 02:10:15;;;;;;;6.15;2.50;;;16.60;99.90;;;;;;5073549;28;20054;-50
2022/07/16 02:12:41;;;;;;;5.47;2.22;;;16.50;99.90;;;;;;5073052;28;20441;-50
2022/07/16 02:15:08;;;;;;;6.60;2.42;;;16.40;99.90;;;;;;5072978;28;20411;-50
2022/07/16 02:17:35;;;;;;;6.68;2.58;;;16.40;99.90;;;;;;5073184;28;20032;-52
2022/07/16 02:20:03;;;;;;;5.15;2.50;;;16.30;99.90;;;;;;5073261;28;20158;-52
2022/07/16 02:22:28;;;;;;;5.45;2.20;;;16.30;99.90;;;;;;5073232;28;20426;-53
2022/07/16 02:24:54;;;;;;;4.85;2.70;;;16.30;99.90;;;;;;5072896;28;20123;-53
2022/07/16 02:27:20;;;;;;;7.68;2.53;;;16.20;99.90;;;;;;5072878;28;20139;-51
2022/07/16 02:29:45;;;;;;;7.32;2.25;;;16.20;99.90;;;;;;5071590;28;20051;-52
2022/07/16 02:32:11;;;;;;;5.95;2.30;;;16.20;99.90;;;;;;5072295;28;20530;-50
2022/07/16 02:34:37;;;;;;;5.20;2.05;;;16.20;99.90;;;;;;5072995;28;20033;-47
2022/07/16 02:37:03;;;;;;;4.80;2.22;;;16.00;99.90;;;;;;5072258;28;20479;-52
2022/07/16 02:39:28;;;;;;;7.35;2.20;;;16.10;99.90;;;;;;5072267;28;20130;-51
2022/07/16 02:41:54;;;;;;;3.67;1.90;;;16.00;99.90;;;;;;5072665;28;20039;-50
2022/07/16 02:44:19;;;;;;;5.50;2.58;;;16.00;99.90;;;;;;5072522;28;20124;-52
2022/07/16 02:46:45;;;;;;;5.57;2.40;;;16.00;99.90;;;;;;5072303;28;20483;-49
2022/07/16 02:49:11;;;;;;;5.00;2.20;;;15.90;99.90;;;;;;5072813;28;20098;-53
2022/07/16 02:51:36;;;;;;;8.02;2.42;;;15.90;99.90;;;;;;5072503;28;20497;-52
2022/07/16 02:54:04;;;;;;;6.55;2.08;;;15.80;99.90;;;;;;5072748;28;20032;-53
2022/07/16 02:56:30;;;;;;;7.22;1.95;;;15.80;99.90;;;;;;5072410;28;20045;-50
2022/07/16 02:58:56;;;;;;;6.05;1.90;;;15.80;99.90;;;;;;5071762;28;20428;-53
2022/07/16 03:01:21;;;;;;;6.22;2.10;;;15.80;99.90;;;;;;5071230;28;20415;-52
2022/07/16 03:03:47;;;;;;;7.85;2.00;;;15.70;99.90;;;;;;5072281;28;20105;-52
2022/07/16 03:06:13;;;;;;;7.18;2.10;;;15.70;99.90;;;;;;5071666;28;20155;-50
2022/07/16 03:08:38;;;;;;;5.80;1.98;;;15.80;99.90;;;;;;5072411;28;20043;-52
2022/07/16 03:11:04;;;;;;;5.43;1.90;;;15.80;99.90;;;;;;5071959;28;20036;-52
2022/07/16 03:13:30;;;;;;;5.85;1.90;;;15.70;99.90;;;;;;5071631;28;20045;-50
2022/07/16 03:15:55;;;;;;;6.20;1.75;;;15.70;99.90;;;;;;5071272;28;20531;-51
2022/07/16 03:18:21;;;;;;;5.18;1.80;;;15.60;99.90;;;;;;5071756;28;20037;-49
2022/07/16 03:20:47;;;;;;;6.85;2.08;;;15.70;99.90;;;;;;5070372;28;20029;-51
2022/07/16 03:23:13;;;;;;;6.43;1.73;;;15.70;99.90;;;;;;5071441;28;20044;-50
2022/07/16 03:25:41;;;;;;;7.57;1.75;;;15.60;99.90;;;;;;5053509;28;20135;-51
2022/07/16 03:28:08;;;;;;;6.32;1.83;;;15.60;99.90;;;;;;5071906;28;20047;-51
2022/07/16 03:30:34;;;;;;;5.32;1.70;;;15.60;99.90;;;;;;5053392;28;20047;-49
2022/07/16 03:32:59;;;;;;;5.82;1.60;;;15.60;99.90;;;;;;5071099;28;20063;-50
2022/07/16 03:35:25;;;;;;;4.50;1.75;;;15.60;99.90;;;;;;5071579;28;20524;-52
2022/07/16 03:40:35;;;;;;;4.80;1.55;;;15.60;99.90;;;;;;5071556;28;20483;-52
2022/07/16 03:43:01;;;;;;;5.10;1.83;;;15.50;99.90;;;;;;5071543;28;20041;-52
2022/07/16 03:45:26;;;;;;;6.70;1.85;;;15.50;99.90;;;;;;5071451;28;20074;-51
2022/07/16 03:47:52;;;;;;;6.80;1.75;;;15.60;99.90;;;;;;5071164;28;20121;-52
2022/07/16 03:50:18;;;;;;;5.22;1.52;;;15.60;99.90;;;;;;5071283;28;20037;-50
2022/07/16 03:52:44;;;;;;;5.00;2.03;;;15.60;99.90;;;;;;5071233;28;20388;-54
2022/07/16 03:55:10;;;;;;;5.07;1.52;;;15.60;99.90;;;;;;5071330;28;20044;-52
2022/07/16 03:57:36;;;;;;;5.03;1.55;;;15.50;99.90;;;;;;5070929;28;20036;-50
2022/07/16 04:00:04;;;;;;;6.20;1.92;;;15.50;99.90;;;;;;5051600;28;20065;-49
2022/07/16 04:02:29;;;;;;;4.75;1.55;;;15.50;99.90;;;;;;5068913;28;20044;-52
2022/07/16 04:04:55;;;;;;;5.75;1.73;;;15.50;99.90;;;;;;5071103;28;20048;-50
2022/07/16 04:07:21;;;;;;;6.55;1.60;;;15.50;99.90;;;;;;5070330;28;20072;-52
2022/07/16 04:09:46;;;;;;;6.75;2.10;;;15.50;99.90;;;;;;5070872;28;20118;-51
2022/07/16 04:12:12;;;;;;;7.30;1.70;;;15.40;99.90;;;;;;5070706;28;20037;-53
2022/07/16 04:14:38;;;;;;;5.13;1.77;;;15.40;99.90;;;;;;5070512;28;20058;-48
2022/07/16 04:17:03;;;;;;;4.15;1.80;;;15.30;99.90;;;;;;5070079;28;20094;-51
2022/07/16 04:19:29;;;;;;;5.43;1.55;;;15.30;99.90;;;;;;5052661;28;20405;-52
2022/07/16 04:21:55;;;;;;;6.38;1.95;;;15.30;99.90;;;;;;5052608;28;20032;-51
2022/07/16 04:24:21;;;;;;;4.35;1.75;;;15.30;99.90;;;;;;5071169;28;20082;-52
2022/07/16 04:26:46;;;;;;;7.70;1.80;;;15.30;99.90;;;;;;5070768;28;20055;-50
2022/07/16 04:29:13;;;;;;;4.50;1.38;;;15.30;99.90;;;;;;5070974;28;20033;-52
2022/07/16 04:31:39;;;;;;;4.68;1.70;;;15.30;99.90;;;;;;5053127;28;20124;-53
2022/07/16 04:34:04;;;;;;;4.38;1.80;;;15.20;99.90;;;;;;5070531;28;20672;-52
2022/07/16 04:36:30;;;;;;;4.50;1.80;;;15.30;99.90;;;;;;5070471;28;20090;-53
2022/07/16 04:38:56;;;;;;;7.63;1.88;;;15.20;99.90;;;;;;5052683;28;20479;-52
2022/07/16 04:41:21;;;;;;;5.03;1.67;;;15.20;99.90;;;;;;5070483;28;20097;-53
2022/07/16 04:43:47;;;;;;;9.98;2.28;;;15.30;99.90;;;;;;5051989;28;20047;-50
2022/07/16 04:46:13;;;;;;;5.13;1.70;;;15.30;99.90;;;;;;5070538;28;20106;-51
2022/07/16 04:48:40;;;;;;;5.03;1.63;;;15.30;99.90;;;;;;5070526;28;20480;-53
2022/07/16 04:51:06;;;;;;;5.72;1.90;;;15.30;99.90;;;;;;5070650;28;20068;-48
2022/07/16 04:53:34;;;;;;;7.20;1.70;;;15.30;99.90;;;;;;5052439;28;20033;-51
2022/07/16 04:56:00;;;;;;;4.50;1.50;;;15.30;99.90;;;;;;5070572;28;20039;-53
2022/07/16 04:58:25;;;;;;;7.47;1.67;;;15.30;99.90;;;;;;5070571;28;20032;-52
2022/07/16 05:00:51;;;;;;;5.65;1.73;;;15.40;99.90;;;;;;5070144;28;20121;-52
2022/07/16 05:03:17;;;;;;;4.18;1.70;;;15.30;99.90;;;;;;5070447;28;20040;-51
2022/07/16 05:05:43;;;;;;;9.90;2.10;;;15.30;99.90;;;;;;5069086;28;20040;-50
2022/07/16 05:08:09;;;;;;;9.82;1.90;;;15.50;99.90;;;;;;5070180;28;20043;-53
2022/07/16 05:10:35;;;;;;;7.28;1.73;;;15.40;99.90;;;;;;5070314;28;20041;-53
2022/07/16 05:13:02;;;;;;;6.95;1.88;;;15.50;99.90;;;;;;5070500;28;20116;-51
2022/07/16 05:15:29;;;;;;;5.55;1.60;;;15.60;99.90;;;;;;5069903;28;20463;-52
2022/07/16 05:17:55;;;;;;;7.13;1.80;;;15.60;99.90;;;;;;5070133;28;20036;-50
2022/07/16 05:20:21;;;;;;;6.10;1.70;;;15.50;99.90;;;;;;5070493;28;20062;-51
2022/07/16 05:22:47;;;;;;;5.30;1.63;;;15.50;99.90;;;;;;5052598;28;20036;-51
2022/07/16 05:25:14;;;;;;;9.07;1.83;;;15.50;99.90;;;;;;5055728;28;20040;-51
2022/07/16 05:27:40;;;;;;;8.00;1.98;;;15.50;99.90;;;;;;5055818;28;20399;-53
2022/07/16 05:30:06;;;;;;;7.13;1.80;;;15.50;99.90;;;;;;5037807;28;20048;-52
2022/07/16 05:32:32;;;;;;;5.50;1.40;;;15.50;99.90;;;;;;5039276;28;20044;-52
2022/07/16 05:34:58;;;;;;;6.00;1.50;;;15.50;99.90;;;;;;5055616;28;20028;-53
2022/07/16 05:37:24;;;;;;;5.35;1.27;;;15.50;99.90;;;;;;5072653;28;20039;-50
2022/07/16 05:39:49;;;;;;;7.47;1.52;;;15.60;99.90;;;;;;5073979;28;20037;-49
2022/07/16 05:42:15;;;;;;;7.25;1.58;;;15.50;99.90;;;;;;5055612;28;20036;-52
2022/07/16 05:44:41;;;;;;;5.55;1.30;;;15.60;99.90;;;;;;5055421;28;20063;-53
2022/07/16 05:47:06;;;;;;;6.63;1.50;;;15.60;99.90;;;;;;5073695;28;20123;-52
2022/07/16 05:49:32;;;;;;;6.78;1.75;;;15.60;99.90;;;;;;5073809;28;20037;-50
2022/07/16 05:51:58;;;;;;;9.50;1.42;;;15.60;99.90;;;;;;5073623;28;20048;-50
2022/07/16 05:54:23;;;;;;;7.50;1.08;;;15.60;99.90;;;;;;5073629;28;20039;-53
2022/07/16 05:56:49;;;;;;;5.65;1.50;;;15.60;99.90;;;;;;5073850;28;20055;-53
2022/07/16 05:59:15;;;;;;;6.00;2.45;;;15.70;99.90;;;;;;5073654;28;20041;-52
2022/07/16 06:01:41;;;;;;;5.18;1.20;;;15.70;99.90;;;;;;5073194;28;20123;-52
2022/07/16 06:04:06;;;;;;;5.72;1.48;;;15.80;99.90;;;;;;5073500;28;20036;-53
2022/07/16 06:06:32;;;;;;;7.78;1.60;;;15.70;99.90;;;;;;5072813;28;20054;-52
2022/07/16 06:08:58;;;;;;;4.65;1.30;;;15.70;99.90;;;;;;5073682;28;20035;-54
2022/07/16 06:11:23;;;;;;;7.07;1.48;;;15.80;99.90;;;;;;5073369;28;20032;-50
2022/07/16 06:13:49;;;;;;;5.78;1.38;;;15.80;99.90;;;;;;5072033;28;20310;-51
2022/07/16 06:16:15;;;;;;;6.15;1.15;;;15.80;99.90;;;;;;5072894;28;20396;-49
2022/07/16 06:18:41;;;;;;;6.07;1.45;;;15.80;99.90;;;;;;5072452;28;20123;-51
2022/07/16 06:21:07;;;;;;;4.85;1.10;;;15.80;99.90;;;;;;5072873;28;20036;-51
2022/07/16 06:23:33;;;;;;;8.25;1.52;;;15.90;99.90;;;;;;5055319;28;20090;-53
2022/07/16 06:25:58;;;;;;;4.75;1.27;;;15.90;99.90;;;;;;5072544;28;20051;-53
2022/07/16 06:28:24;;;;;;;4.13;1.10;;;15.90;99.90;;;;;;5073361;28;20071;-54
2022/07/16 06:30:50;;;;;;;5.95;1.50;;;16.00;99.90;;;;;;5072867;28;20097;-49
2022/07/16 06:33:15;;;;;;;5.68;1.58;;;16.00;99.90;;;;;;5072349;28;20029;-52
2022/07/16 06:35:41;;;;;;;5.00;1.10;;;16.10;99.90;;;;;;5073104;28;20048;-52
2022/07/16 06:38:07;;;;;;;5.93;1.25;;;16.10;99.90;;;;;;5072502;28;20035;-51
2022/07/16 06:40:32;;;;;;;6.75;1.23;;;16.10;99.90;;;;;;5072817;28;20544;-53
2022/07/16 06:42:58;;;;;;;6.15;1.38;;;16.20;99.90;;;;;;5072842;28;20033;-51
2022/07/16 06:45:24;;;;;;;4.05;1.23;;;16.20;99.90;;;;;;5072428;28;20036;-51
2022/07/16 06:47:49;;;;;;;7.30;1.33;;;16.30;99.90;;;;;;5054516;28;20098;-52
2022/07/16 06:50:15;;;;;;;6.18;1.48;;;16.40;99.90;;;;;;5071870;28;20429;-53
2022/07/16 06:52:41;;;;;;;6.22;1.20;;;16.50;99.90;;;;;;5037589;28;20052;-51
2022/07/16 06:55:07;;;;;;;5.40;1.17;;;16.60;99.90;;;;;;5072602;28;20037;-52
2022/07/16 06:57:33;;;;;;;4.70;1.30;;;16.70;99.90;;;;;;5072556;28;20040;-50
2022/07/16 06:59:59;;;;;;;5.38;1.33;;;16.80;99.90;;;;;;5070999;28;20563;-51
2022/07/16 07:02:25;;;;;;;5.00;1.13;;;16.90;99.90;;;;;;5072144;28;20041;-54
2022/07/16 07:04:51;;;;;;;5.55;0.88;;;17.10;99.90;;;;;;5071667;28;20122;-50
2022/07/16 07:07:16;;;;;;;5.47;0.90;;;17.20;99.90;;;;;;5070966;28;20087;-55
2022/07/16 07:09:42;;;;;;;5.55;1.13;;;17.10;99.90;;;;;;5071844;28;20041;-52
2022/07/16 07:12:07;;;;;;;4.38;1.00;;;17.30;99.90;;;;;;5071565;28;20044;-50
2022/07/16 07:14:33;;;;;;;5.82;1.15;;;17.30;99.90;;;;;;5071931;28;20054;-50
2022/07/16 07:16:59;;;;;;;5.10;1.20;;;17.30;99.90;;;;;;5063316;28;20094;-50
2022/07/16 07:19:25;;;;;;;4.78;0.80;;;17.40;99.90;;;;;;5063684;28;20020;-49
2022/07/16 07:21:51;;;;;;;8.48;0.90;;;17.40;99.90;;;;;;5061855;28;20075;-50
2022/07/16 07:24:16;;;;;;;4.95;0.98;;;17.30;99.90;;;;;;5064183;28;20119;-51
2022/07/16 07:26:42;;;;;;;6.68;0.90;;;17.10;99.90;;;;;;5063181;28;20498;-52
2022/07/16 07:29:08;;;;;;;2.50;0.80;;;17.00;99.90;;;;;;5063721;28;20379;-53
2022/07/16 07:31:33;;;;;;;6.53;1.38;;;16.90;99.90;;;;;;5063982;28;20119;-48
2022/07/16 07:33:59;;;;;;;5.65;1.00;;;16.70;99.90;;;;;;5063314;28;20047;-52
2022/07/16 07:36:24;;;;;;;4.30;1.10;;;16.60;99.90;;;;;;5046510;28;20082;-51
2022/07/16 07:38:50;;;;;;;4.10;0.82;;;16.60;99.90;;;;;;5063270;28;20033;-50
2022/07/16 07:41:16;;;;;;;4.97;1.20;;;16.60;99.90;;;;;;5063386;28;20034;-48
2022/07/16 07:43:42;;;;;;;6.80;0.98;;;16.60;99.90;;;;;;5064098;28;20048;-51
2022/07/16 07:46:07;;;;;;;4.30;0.82;;;16.70;99.90;;;;;;5063398;28;20040;-51
2022/07/16 07:48:33;;;;;;;5.72;1.13;;;16.80;99.90;;;;;;5047618;28;20505;-52
2022/07/16 07:50:59;;;;;;;5.03;1.02;;;16.80;99.90;;;;;;5065714;28;20457;-53
2022/07/16 07:53:24;;;;;;;5.55;1.05;;;16.80;99.90;;;;;;5064923;28;20492;-54
2022/07/16 07:55:50;;;;;;;7.20;1.02;;;16.80;99.90;;;;;;5064074;28;20037;-52
2022/07/16 07:58:16;;;;;;;8.32;1.15;;;16.70;99.90;;;;;;5050917;28;20040;-52
2022/07/16 08:00:42;;;;;;;5.28;0.80;;;16.70;99.90;;;;;;5059804;28;20498;-53
2022/07/16 08:03:09;;;;;;;4.72;1.10;;;16.60;99.90;;;;;;5061447;28;20036;-51
2022/07/16 08:05:35;;;;;;;4.75;0.90;;;16.60;99.90;;;;;;5060984;28;20037;-51
2022/07/16 08:08:02;;;;;;;3.60;0.80;;;16.80;99.90;;;;;;5050249;28;20043;-49
2022/07/16 08:10:28;;;;;;;6.35;0.98;;;16.90;99.90;;;;;;5060883;28;20086;-52
2022/07/16 08:12:53;;;;;;;4.47;1.23;;;17.30;99.90;;;;;;5052122;28;20036;-51
2022/07/16 08:15:19;;;;;;;5.30;0.82;;;17.40;99.90;;;;;;5024950;28;20388;-52
2022/07/16 08:17:45;;;;;;;5.07;0.95;;;17.60;99.90;;;;;;5064436;28;20024;-52
2022/07/16 08:20:13;;;;;;;4.65;0.90;;;17.80;99.90;;;;;;5065449;28;20718;-51
2022/07/16 08:22:39;;;;;;;4.72;0.82;;;17.90;99.90;;;;;;5062870;28;20687;-52
2022/07/16 08:27:51;;;;;;;4.10;0.90;;;18.00;99.90;;;;;;5061252;28;20139;-51
2022/07/16 08:30:17;;;;;;;4.95;0.90;;;18.00;99.90;;;;;;5060499;28;20119;-49
2022/07/16 08:32:42;;;;;;;3.92;0.70;;;17.80;99.90;;;;;;5060624;28;20048;-52
2022/07/16 08:35:08;;;;;;;5.45;0.90;;;17.70;99.90;;;;;;5060711;28;20032;-50
2022/07/16 08:37:37;;;;;;;3.78;0.60;;;17.50;99.90;;;;;;5060657;28;20074;-52
2022/07/16 08:40:05;;;;;;;3.28;1.02;;;17.60;99.90;;;;;;5060553;28;20017;-52
2022/07/16 08:42:32;;;;;;;6.78;0.90;;;17.70;99.90;;;;;;5048297;28;20102;-53
2022/07/16 08:44:58;;;;;;;5.13;0.88;;;18.00;99.90;;;;;;5060762;28;20441;-51
2022/07/16 08:47:25;;;;;;;5.45;0.63;;;18.10;99.90;;;;;;5060584;28;20104;-51
2022/07/16 08:49:51;;;;;;;5.07;0.80;;;18.20;99.90;;;;;;5059529;28;20538;-52
2022/07/16 08:52:19;;;;;;;5.40;0.80;;;18.20;99.90;;;;;;5060128;28;20048;-53
2022/07/16 08:54:47;;;;;;;3.50;0.77;;;18.20;99.90;;;;;;5062601;28;20048;-53
2022/07/16 08:57:15;;;;;;;3.42;0.60;;;18.10;99.90;;;;;;5061340;28;20475;-53
2022/07/16 08:59:41;;;;;;;3.55;0.95;;;17.90;99.90;;;;;;5062347;28;20056;-52
2022/07/16 09:02:06;;;;;;;5.03;0.95;;;17.80;99.90;;;;;;5061648;28;22079;-53
2022/07/16 09:04:32;;;;;;;2.63;0.65;;;17.80;99.90;;;;;;5061916;28;20036;-53
2022/07/16 09:06:58;;;;;;;3.42;0.63;;;18.00;99.90;;;;;;5064592;28;20040;-52
2022/07/16 09:09:24;;;;;;;4.30;0.70;;;18.20;99.90;;;;;;5068540;28;20040;-52
2022/07/16 09:11:49;;;;;;;3.92;0.85;;;18.60;99.90;;;;;;5072282;28;20097;-53
2022/07/16 09:14:18;;;;;;;5.25;0.80;;;18.70;99.50;;;;;;5071119;28;20039;-50
2022/07/16 09:16:46;;;;;;;4.88;0.70;;;18.70;99.80;;;;;;5071746;28;20127;-52
2022/07/16 09:19:23;;;;;;;3.17;0.65;;;18.40;98.80;;;;;;5072624;28;20053;-52
2022/07/16 09:22:14;;;;;;;5.30;0.82;;;18.60;98.60;;;;;;5073402;28;20120;-52
2022/07/16 09:24:47;;;;;;;5.38;0.80;;;18.80;97.90;;;;;;5054838;28;20044;-54
2022/07/16 09:27:24;;;;;;;2.25;0.70;;;19.50;99.60;;;;;;5073829;28;20041;-54
2022/07/16 09:29:52;;;;;;;2.70;0.60;;;19.40;97.90;;;;;;5074177;28;20041;-53
2022/07/16 09:32:34;;;;;;;3.60;0.65;;;18.90;97.50;;;;;;5073410;28;20037;-51
2022/07/16 09:35:15;;;;;;;6.72;0.98;;;18.60;97.90;;;;;;5055764;28;20040;-52
2022/07/16 09:37:56;;;;;;;5.63;0.70;;;18.60;98.10;;;;;;5073117;28;20040;-53
2022/07/16 09:40:35;;;;;;;7.20;1.00;;;18.60;98.00;;;;;;5073916;28;20044;-51
2022/07/16 09:43:02;;;;;;;3.95;0.70;;;18.60;98.00;;;;;;5073748;28;20150;-51
2022/07/16 09:45:29;;;;;;;2.65;0.60;;;18.90;97.80;;;;;;5073680;28;20426;-51
2022/07/16 09:47:55;;;;;;;5.35;0.68;;;19.10;97.20;;;;;;5073570;28;20041;-54
2022/07/16 09:50:21;;;;;;;3.50;0.60;;;19.60;96.50;;;;;;5073610;28;20036;-50
2022/07/16 09:52:47;;;;;;;3.50;0.50;;;19.80;96.10;;;;;;5073307;28;20075;-52
2022/07/16 09:55:13;;;;;;;5.25;0.80;;;20.20;97.00;;;;;;5073395;28;20067;-53
2022/07/16 09:57:41;;;;;;;6.03;0.98;;;20.50;97.00;;;;;;5073270;28;20040;-53
2022/07/16 10:00:07;;;;;;;5.47;0.70;;;20.40;96.70;;;;;;5073210;28;20045;-54
2022/07/16 10:02:33;;;;;;;3.05;0.55;;;20.20;96.10;;;;;;5055291;28;20093;-53
2022/07/16 10:04:59;;;;;;;3.28;0.60;;;19.60;95.90;;;;;;5073349;28;20050;-54
2022/07/16 10:07:25;;;;;;;3.80;0.77;;;19.30;96.40;;;;;;5073235;28;20524;-53
2022/07/16 10:09:51;;;;;;;4.35;0.88;;;19.30;97.20;;;;;;5055103;28;20115;-53
2022/07/16 10:12:20;;;;;;;7.13;0.98;;;19.80;97.50;;;;;;5073381;28;20040;-54
2022/07/16 10:14:52;;;;;;;4.28;0.88;;;20.00;97.00;;;;;;5054733;28;20044;-54
2022/07/16 10:17:21;;;;;;;3.20;0.60;;;20.40;96.10;;;;;;5073314;28;20037;-53
2022/07/16 10:20:05;;;;;;;4.28;0.75;;;20.20;96.30;;;;;;5073131;28;20468;-53
2022/07/16 10:22:36;;;;;;;3.95;0.63;;;19.60;95.60;;;;;;5073260;28;20039;-52
2022/07/16 10:25:17;;;;;;;4.05;0.75;;;19.80;95.70;;;;;;5072914;28;20480;-51
2022/07/16 10:27:43;;;;;;;4.75;0.75;;;20.20;95.10;;;;;;5068411;28;20047;-51
2022/07/16 10:30:14;;;;;;;4.43;0.77;;;20.40;96.00;;;;;;5071242;28;20036;-52
2022/07/16 10:32:59;;;;;;;3.25;0.60;;;20.50;95.30;;;;;;5050184;28;20052;-50
2022/07/16 10:35:29;;;;;;;5.53;0.68;;;20.50;94.70;;;;;;5065227;28;20072;-54
2022/07/16 10:38:08;;;;;;;3.13;1.02;;;20.30;95.00;;;;;;5064691;28;20045;-53
2022/07/16 10:40:36;;;;;;;8.10;0.95;;;20.60;94.80;;;;;;5065571;28;20051;-50
2022/07/16 10:43:18;;;;;;;4.85;0.90;;;20.70;95.50;;;;;;5069789;28;20452;-52
2022/07/16 10:45:56;;;;;;;5.00;0.80;;;20.40;94.20;;;;;;5073342;28;20089;-54
2022/07/16 10:48:43;;;;;;;4.60;0.68;;;20.50;95.00;;;;;;5070787;28;20044;-52
2022/07/16 10:51:17;;;;;;;3.17;0.70;;;20.10;94.90;;;;;;5007360;28;20143;-52
2022/07/16 10:53:56;;;;;;;3.00;0.40;;;20.30;95.00;;;;;;5083462;28;20533;-54
2022/07/16 10:56:37;;;;;;;3.15;0.60;;;19.90;94.20;;;;;;5085771;28;20045;-54
2022/07/16 10:59:09;;;;;;;5.13;0.80;;;20.10;94.40;;;;;;5072252;28;20037;-52
2022/07/16 11:01:35;;;;;;;3.08;0.52;;;20.70;94.60;;;;;;5070580;28;20455;-54
2022/07/16 11:04:05;;;;;;;3.45;0.60;;;20.90;95.60;;;;;;5053053;28;20120;-53
2022/07/16 11:06:32;;;;;;;6.00;0.90;;;21.20;95.70;;;;;;5071163;28;20040;-51
2022/07/16 11:09:03;;;;;;;3.53;0.63;;;21.00;95.00;;;;;;5073143;28;20040;-54
2022/07/16 11:11:40;;;;;;;5.57;0.68;;;21.20;95.80;;;;;;5072063;28;20041;-55
2022/07/16 11:14:08;;;;;;;3.15;0.50;;;21.30;95.30;;;;;;5071514;28;20036;-53
2022/07/16 11:16:35;;;;;;;3.78;0.50;;;21.60;96.10;;;;;;5054109;28;20029;-54
2022/07/16 11:19:04;;;;;;;3.25;0.60;;;21.60;95.50;;;;;;5072315;28;20223;-54
2022/07/16 11:21:31;;;;;;;4.05;0.70;;;21.50;93.90;;;;;;5070697;28;20040;-54
2022/07/16 11:24:01;;;;;;;4.93;0.65;;;21.90;94.80;;;;;;5071888;28;20116;-54
2022/07/16 11:26:30;;;;;;;5.28;0.73;;;21.80;94.20;;;;;;5072146;28;20076;-53
2022/07/16 11:28:58;;;;;;;4.72;0.90;;;21.80;94.60;;;;;;5071868;28;20032;-53
2022/07/16 11:31:36;;;;;;;6.38;1.00;;;21.20;95.10;;;;;;5071688;28;20495;-54
2022/07/16 11:34:04;;;;;;;4.28;0.60;;;20.80;95.30;;;;;;5071612;28;20037;-53
2022/07/16 11:36:35;;;;;;;3.70;0.90;;;20.60;96.40;;;;;;5070991;28;20102;-53
2022/07/16 11:39:07;;;;;;;8.23;1.00;;;20.50;96.20;;;;;;5070401;28;20123;-54
2022/07/16 11:41:37;;;;;;;6.18;0.95;;;20.60;96.20;;;;;;5071784;28;20484;-53
2022/07/16 11:44:16;;;;;;;5.75;1.10;;;21.50;96.00;;;;;;5071671;28;20450;-54
2022/07/16 11:46:51;;;;;;;6.40;1.02;;;21.60;95.40;;;;;;5071535;28;20051;-53
2022/07/16 11:49:31;;;;;;;6.22;0.80;;;21.60;95.00;;;;;;5071461;28;20036;-52
2022/07/16 11:52:00;;;;;;;4.20;0.65;;;21.20;96.00;;;;;;5071456;28;20120;-51
2022/07/16 11:54:27;;;;;;;3.42;0.77;;;20.60;96.90;;;;;;5070915;28;20113;-52
2022/07/16 11:56:54;;;;;;;6.13;0.80;;;20.60;97.30;;;;;;5071022;28;20391;-52
2022/07/16 11:59:23;;;;;;;6.30;1.00;;;21.10;97.50;;;;;;5071107;28;20044;-54
2022/07/16 12:02:05;;;;;;;6.63;0.95;;;20.90;97.60;;;;;;5071361;28;20037;-53
2022/07/16 12:04:42;;;;;;;5.28;0.90;;;21.20;98.60;;;;;;5071144;28;20223;-54
2022/07/16 12:07:16;;;;;;;4.75;0.90;;;21.60;98.00;;;;;;5070646;28;20052;-53
2022/07/16 12:09:47;;;;;;;10.80;1.30;;;21.70;96.40;;;;;;5053259;28;20048;-55
2022/07/16 12:12:18;;;;;;;4.43;0.70;;;21.70;96.50;;;;;;5071007;28;20075;-54
2022/07/16 12:14:57;;;;;;;6.20;0.85;;;21.90;96.70;;;;;;5070966;28;20040;-55
2022/07/16 12:17:24;;;;;;;5.07;1.00;;;22.60;95.50;;;;;;5071319;28;20036;-53
2022/07/16 12:20:08;;;;;;;3.75;0.70;;;22.80;95.70;;;;;;5070607;28;20037;-54
2022/07/16 12:23:05;;;;;;;6.20;0.73;;;22.20;95.10;;;;;;5071183;28;20090;-52
2022/07/16 12:25:42;;;;;;;4.38;0.80;;;21.50;95.00;;;;;;5070595;28;20150;-51
2022/07/16 12:28:20;;;;;;;5.78;1.08;;;21.30;95.90;;;;;;5070643;28;20454;-52
2022/07/16 12:30:56;;;;;;;5.20;0.70;;;21.60;95.80;;;;;;5071262;28;20040;-50
2022/07/16 12:33:23;;;;;;;5.93;0.85;;;22.00;94.80;;;;;;5070663;28;20036;-54
2022/07/16 12:35:50;;;;;;;2.97;0.70;;;22.00;94.20;;;;;;5070730;28;20507;-54
2022/07/16 12:38:44;;;;;;;3.42;0.82;;;21.90;94.30;;;;;;5070444;28;20468;-52
2022/07/16 12:41:13;;;;;;;4.22;0.60;;;21.60;94.30;;;;;;5068008;28;20055;-53
2022/07/16 12:43:41;;;;;;;3.85;0.63;;;22.40;94.70;;;;;;5071144;28;20048;-53
2022/07/16 12:46:08;;;;;;;6.20;0.80;;;22.80;93.30;;;;;;5070889;28;20391;-54
2022/07/16 12:48:42;;;;;;;5.50;0.95;;;22.70;93.70;;;;;;5070427;28;20113;-53
2022/07/16 12:51:09;;;;;;;5.20;0.88;;;22.80;92.90;;;;;;5070512;28;20130;-53
2022/07/16 12:53:35;;;;;;;4.85;0.88;;;22.30;92.70;;;;;;5070846;28;20105;-52
2022/07/16 12:58:48;;;;;;;2.97;0.75;;;22.80;92.90;;;;;;5070611;28;20444;-53
2022/07/16 13:01:18;;;;;;;3.75;0.80;;;23.10;93.20;;;;;;5070338;28;20419;-54